sensor_id;sensor_type;location;lat;lon;timestamp;P1;durP1;ratioP1;P2;durP2;ratioP2
74383;SDS011;62824;52.994;-3.936;2023-07-20T00:02:11;3.67;;;2.55;;
74383;SDS011;62824;52.994;-3.936;2023-07-20T00:04:37;3.30;;;2.47;;
74383;SDS011;62824;52.994;-3.936;2023-07-20T00:07:03;2.95;;;2.25;;
74383;SDS011;62824;52.994;-3.936;2023-07-20T00:09:29;4.18;;;2.42;;
74383;SDS011;62824;52.994;-3.936;2023-07-20T00:11:55;3.15;;;2.50;;
74383;SDS011;62824;52.994;-3.936;2023-07-20T00:14:21;2.90;;;2.33;;
74383;SDS011;62824;52.994;-3.936;2023-07-20T00:16:47;2.90;;;2.35;;
74383;SDS011;62824;52.994;-3.936;2023-07-20T00:19:20;3.08;;;2.70;;
74383;SDS011;62824;52.994;-3.936;2023-07-20T00:25:28;2.67;;;2.33;;
74383;SDS011;62824;52.994;-3.936;2023-07-20T00:27:54;3.50;;;2.53;;
74383;SDS011;62824;52.994;-3.936;2023-07-20T00:30:20;2.58;;;2.33;;
74383;SDS011;62824;52.994;-3.936;2023-07-20T00:32:46;2.95;;;2.30;;
74383;SDS011;62824;52.994;-3.936;2023-07-20T00:35:11;4.38;;;2.33;;
74383;SDS011;62824;52.994;-3.936;2023-07-20T00:37:39;2.72;;;2.22;;
74383;SDS011;62824;52.994;-3.936;2023-07-20T00:40:05;3.97;;;2.72;;
74383;SDS011;62824;52.994;-3.936;2023-07-20T00:42:32;3.97;;;2.65;;
74383;SDS011;62824;52.994;-3.936;2023-07-20T00:44:58;5.40;;;2.88;;
74383;SDS011;62824;52.994;-3.936;2023-07-20T00:47:24;4.30;;;3.05;;
74383;SDS011;62824;52.994;-3.936;2023-07-20T00:49:50;4.05;;;3.08;;
74383;SDS011;62824;52.994;-3.936;2023-07-20T00:52:17;4.50;;;3.20;;
74383;SDS011;62824;52.994;-3.936;2023-07-20T00:54:45;4.65;;;2.83;;
74383;SDS011;62824;52.994;-3.936;2023-07-20T00:57:14;4.65;;;3.20;;
74383;SDS011;62824;52.994;-3.936;2023-07-20T00:59:40;3.00;;;2.58;;
74383;SDS011;62824;52.994;-3.936;2023-07-20T01:02:07;4.55;;;2.75;;
74383;SDS011;62824;52.994;-3.936;2023-07-20T01:04:33;6.18;;;2.67;;
74383;SDS011;62824;52.994;-3.936;2023-07-20T01:12:16;5.45;;;3.00;;
74383;SDS011;62824;52.994;-3.936;2023-07-20T01:14:48;4.18;;;2.65;;
74383;SDS011;62824;52.994;-3.936;2023-07-20T01:17:15;6.85;;;2.60;;
74383;SDS011;62824;52.994;-3.936;2023-07-20T01:19:40;4.03;;;2.88;;
74383;SDS011;62824;52.994;-3.936;2023-07-20T01:33:21;4.75;;;2.67;;
74383;SDS011;62824;52.994;-3.936;2023-07-20T01:35:50;3.95;;;2.97;;
74383;SDS011;62824;52.994;-3.936;2023-07-20T01:38:19;4.40;;;2.83;;
74383;SDS011;62824;52.994;-3.936;2023-07-20T01:40:46;3.53;;;2.78;;
74383;SDS011;62824;52.994;-3.936;2023-07-20T01:43:13;4.30;;;2.65;;
74383;SDS011;62824;52.994;-3.936;2023-07-20T01:45:39;5.97;;;3.28;;
74383;SDS011;62824;52.994;-3.936;2023-07-20T01:48:05;3.75;;;2.80;;
74383;SDS011;62824;52.994;-3.936;2023-07-20T01:50:30;4.70;;;2.85;;
74383;SDS011;62824;52.994;-3.936;2023-07-20T01:52:56;4.22;;;3.28;;
74383;SDS011;62824;52.994;-3.936;2023-07-20T01:55:22;5.47;;;3.78;;
74383;SDS011;62824;52.994;-3.936;2023-07-20T01:57:48;4.53;;;3.60;;
74383;SDS011;62824;52.994;-3.936;2023-07-20T02:00:14;4.47;;;3.38;;
74383;SDS011;62824;52.994;-3.936;2023-07-20T02:02:41;5.18;;;3.70;;
74383;SDS011;62824;52.994;-3.936;2023-07-20T02:05:07;3.95;;;3.20;;
74383;SDS011;62824;52.994;-3.936;2023-07-20T02:07:33;4.80;;;3.17;;
74383;SDS011;62824;52.994;-3.936;2023-07-20T02:09:59;5.68;;;3.30;;
74383;SDS011;62824;52.994;-3.936;2023-07-20T02:12:24;6.80;;;3.40;;
74383;SDS011;62824;52.994;-3.936;2023-07-20T02:14:50;6.18;;;3.30;;
74383;SDS011;62824;52.994;-3.936;2023-07-20T02:17:16;4.97;;;3.25;;
74383;SDS011;62824;52.994;-3.936;2023-07-20T02:19:42;4.95;;;3.00;;
74383;SDS011;62824;52.994;-3.936;2023-07-20T02:22:08;7.07;;;3.97;;
74383;SDS011;62824;52.994;-3.936;2023-07-20T02:24:34;5.85;;;3.90;;
74383;SDS011;62824;52.994;-3.936;2023-07-20T02:26:59;4.90;;;3.67;;
74383;SDS011;62824;52.994;-3.936;2023-07-20T02:29:25;5.60;;;3.92;;
74383;SDS011;62824;52.994;-3.936;2023-07-20T02:31:51;5.28;;;3.80;;
74383;SDS011;62824;52.994;-3.936;2023-07-20T02:34:17;5.68;;;3.85;;
74383;SDS011;62824;52.994;-3.936;2023-07-20T02:36:42;4.35;;;3.50;;
74383;SDS011;62824;52.994;-3.936;2023-07-20T02:39:08;6.57;;;4.25;;
74383;SDS011;62824;52.994;-3.936;2023-07-20T02:41:35;6.15;;;4.20;;
74383;SDS011;62824;52.994;-3.936;2023-07-20T02:44:01;6.28;;;3.97;;
74383;SDS011;62824;52.994;-3.936;2023-07-20T02:46:28;5.78;;;3.88;;
74383;SDS011;62824;52.994;-3.936;2023-07-20T02:48:57;7.60;;;4.18;;
74383;SDS011;62824;52.994;-3.936;2023-07-20T02:51:23;7.63;;;4.15;;
74383;SDS011;62824;52.994;-3.936;2023-07-20T02:53:49;6.55;;;4.20;;
74383;SDS011;62824;52.994;-3.936;2023-07-20T02:56:15;5.35;;;3.80;;
74383;SDS011;62824;52.994;-3.936;2023-07-20T02:58:41;6.45;;;3.83;;
74383;SDS011;62824;52.994;-3.936;2023-07-20T03:01:11;4.90;;;3.70;;
74383;SDS011;62824;52.994;-3.936;2023-07-20T03:03:37;9.07;;;3.88;;
74383;SDS011;62824;52.994;-3.936;2023-07-20T03:06:03;5.97;;;4.07;;
74383;SDS011;62824;52.994;-3.936;2023-07-20T03:08:33;5.75;;;3.70;;
74383;SDS011;62824;52.994;-3.936;2023-07-20T03:11:00;6.93;;;4.20;;
74383;SDS011;62824;52.994;-3.936;2023-07-20T03:13:26;5.82;;;3.65;;
74383;SDS011;62824;52.994;-3.936;2023-07-20T03:15:52;4.93;;;3.22;;
74383;SDS011;62824;52.994;-3.936;2023-07-20T03:18:18;5.75;;;4.07;;
74383;SDS011;62824;52.994;-3.936;2023-07-20T03:20:44;7.32;;;4.30;;
74383;SDS011;62824;52.994;-3.936;2023-07-20T03:23:11;6.10;;;3.58;;
74383;SDS011;62824;52.994;-3.936;2023-07-20T03:25:37;6.18;;;4.13;;
74383;SDS011;62824;52.994;-3.936;2023-07-20T03:28:03;6.63;;;3.92;;
74383;SDS011;62824;52.994;-3.936;2023-07-20T03:30:29;5.07;;;3.63;;
74383;SDS011;62824;52.994;-3.936;2023-07-20T03:32:55;4.93;;;3.80;;
74383;SDS011;62824;52.994;-3.936;2023-07-20T03:35:21;6.32;;;3.90;;
74383;SDS011;62824;52.994;-3.936;2023-07-20T03:37:47;6.47;;;3.42;;
74383;SDS011;62824;52.994;-3.936;2023-07-20T03:40:13;6.05;;;4.00;;
74383;SDS011;62824;52.994;-3.936;2023-07-20T03:42:39;5.18;;;3.58;;
74383;SDS011;62824;52.994;-3.936;2023-07-20T03:45:06;5.63;;;4.00;;
74383;SDS011;62824;52.994;-3.936;2023-07-20T03:47:32;5.93;;;4.10;;
74383;SDS011;62824;52.994;-3.936;2023-07-20T03:49:58;6.55;;;4.10;;
74383;SDS011;62824;52.994;-3.936;2023-07-20T03:52:24;4.75;;;3.50;;
74383;SDS011;62824;52.994;-3.936;2023-07-20T03:54:50;7.30;;;3.88;;
74383;SDS011;62824;52.994;-3.936;2023-07-20T03:57:18;5.15;;;3.28;;
74383;SDS011;62824;52.994;-3.936;2023-07-20T03:59:45;6.50;;;3.70;;
74383;SDS011;62824;52.994;-3.936;2023-07-20T04:02:13;7.45;;;4.50;;
74383;SDS011;62824;52.994;-3.936;2023-07-20T04:04:39;5.65;;;4.10;;
74383;SDS011;62824;52.994;-3.936;2023-07-20T04:07:05;7.03;;;4.60;;
74383;SDS011;62824;52.994;-3.936;2023-07-20T04:09:32;5.85;;;4.47;;
74383;SDS011;62824;52.994;-3.936;2023-07-20T04:11:58;8.52;;;4.25;;
74383;SDS011;62824;52.994;-3.936;2023-07-20T04:14:24;6.38;;;4.15;;
74383;SDS011;62824;52.994;-3.936;2023-07-20T04:16:50;7.38;;;4.07;;
74383;SDS011;62824;52.994;-3.936;2023-07-20T04:19:16;5.55;;;3.83;;
74383;SDS011;62824;52.994;-3.936;2023-07-20T04:21:43;7.78;;;4.43;;
74383;SDS011;62824;52.994;-3.936;2023-07-20T04:24:09;6.50;;;3.75;;
74383;SDS011;62824;52.994;-3.936;2023-07-20T04:26:34;5.47;;;3.72;;
74383;SDS011;62824;52.994;-3.936;2023-07-20T04:29:00;4.70;;;3.22;;
74383;SDS011;62824;52.994;-3.936;2023-07-20T04:31:26;5.25;;;3.45;;
74383;SDS011;62824;52.994;-3.936;2023-07-20T04:33:52;5.18;;;3.95;;
74383;SDS011;62824;52.994;-3.936;2023-07-20T04:36:17;6.15;;;3.80;;
74383;SDS011;62824;52.994;-3.936;2023-07-20T04:38:47;6.65;;;3.83;;
74383;SDS011;62824;52.994;-3.936;2023-07-20T04:41:13;7.63;;;4.30;;
74383;SDS011;62824;52.994;-3.936;2023-07-20T04:43:42;6.78;;;5.30;;
74383;SDS011;62824;52.994;-3.936;2023-07-20T04:46:09;6.35;;;4.13;;
74383;SDS011;62824;52.994;-3.936;2023-07-20T04:48:35;6.47;;;3.95;;
74383;SDS011;62824;52.994;-3.936;2023-07-20T04:51:01;6.97;;;3.53;;
74383;SDS011;62824;52.994;-3.936;2023-07-20T04:53:28;4.60;;;3.58;;
74383;SDS011;62824;52.994;-3.936;2023-07-20T04:55:54;6.55;;;3.72;;
74383;SDS011;62824;52.994;-3.936;2023-07-20T04:58:20;5.75;;;4.13;;
74383;SDS011;62824;52.994;-3.936;2023-07-20T05:00:50;6.53;;;4.03;;
74383;SDS011;62824;52.994;-3.936;2023-07-20T05:03:16;5.13;;;3.75;;
74383;SDS011;62824;52.994;-3.936;2023-07-20T05:05:42;4.70;;;3.50;;
74383;SDS011;62824;52.994;-3.936;2023-07-20T05:08:08;4.72;;;3.88;;
74383;SDS011;62824;52.994;-3.936;2023-07-20T05:14:10;6.65;;;4.13;;
74383;SDS011;62824;52.994;-3.936;2023-07-20T05:16:36;6.05;;;3.97;;
74383;SDS011;62824;52.994;-3.936;2023-07-20T05:19:02;7.53;;;4.15;;
74383;SDS011;62824;52.994;-3.936;2023-07-20T05:21:28;5.53;;;4.10;;
74383;SDS011;62824;52.994;-3.936;2023-07-20T05:23:53;6.18;;;4.05;;
74383;SDS011;62824;52.994;-3.936;2023-07-20T05:26:19;5.90;;;3.97;;
74383;SDS011;62824;52.994;-3.936;2023-07-20T05:28:45;7.65;;;4.70;;
74383;SDS011;62824;52.994;-3.936;2023-07-20T05:31:11;6.97;;;3.67;;
74383;SDS011;62824;52.994;-3.936;2023-07-20T05:33:36;7.50;;;4.18;;
74383;SDS011;62824;52.994;-3.936;2023-07-20T05:36:02;7.78;;;4.38;;
74383;SDS011;62824;52.994;-3.936;2023-07-20T05:38:28;8.40;;;4.22;;
74383;SDS011;62824;52.994;-3.936;2023-07-20T05:40:58;9.68;;;4.38;;
74383;SDS011;62824;52.994;-3.936;2023-07-20T05:43:27;6.53;;;4.13;;
74383;SDS011;62824;52.994;-3.936;2023-07-20T05:45:52;6.88;;;4.40;;
74383;SDS011;62824;52.994;-3.936;2023-07-20T05:48:18;6.38;;;4.22;;
74383;SDS011;62824;52.994;-3.936;2023-07-20T05:50:44;6.80;;;4.22;;
74383;SDS011;62824;52.994;-3.936;2023-07-20T05:53:10;8.70;;;5.93;;
74383;SDS011;62824;52.994;-3.936;2023-07-20T05:55:35;5.90;;;3.63;;
74383;SDS011;62824;52.994;-3.936;2023-07-20T05:58:01;8.63;;;4.00;;
74383;SDS011;62824;52.994;-3.936;2023-07-20T06:00:29;6.13;;;3.95;;
74383;SDS011;62824;52.994;-3.936;2023-07-20T06:02:54;5.07;;;3.20;;
74383;SDS011;62824;52.994;-3.936;2023-07-20T06:05:23;6.90;;;3.67;;
74383;SDS011;62824;52.994;-3.936;2023-07-20T06:07:50;7.15;;;4.03;;
74383;SDS011;62824;52.994;-3.936;2023-07-20T06:10:15;5.20;;;3.58;;
74383;SDS011;62824;52.994;-3.936;2023-07-20T06:12:41;7.95;;;3.92;;
74383;SDS011;62824;52.994;-3.936;2023-07-20T06:15:23;6.38;;;4.07;;
74383;SDS011;62824;52.994;-3.936;2023-07-20T06:20:16;7.25;;;4.22;;
74383;SDS011;62824;52.994;-3.936;2023-07-20T06:22:42;5.65;;;4.10;;
74383;SDS011;62824;52.994;-3.936;2023-07-20T06:25:09;3.17;;;2.58;;
74383;SDS011;62824;52.994;-3.936;2023-07-20T06:27:35;5.78;;;2.78;;
74383;SDS011;62824;52.994;-3.936;2023-07-20T06:30:01;4.38;;;2.70;;
74383;SDS011;62824;52.994;-3.936;2023-07-20T06:32:27;13.90;;;3.67;;
74383;SDS011;62824;52.994;-3.936;2023-07-20T06:34:53;6.38;;;3.45;;
74383;SDS011;62824;52.994;-3.936;2023-07-20T06:37:18;4.88;;;3.63;;
74383;SDS011;62824;52.994;-3.936;2023-07-20T06:39:45;3.40;;;2.45;;
74383;SDS011;62824;52.994;-3.936;2023-07-20T06:42:11;5.00;;;3.75;;
74383;SDS011;62824;52.994;-3.936;2023-07-20T06:44:37;5.82;;;3.22;;
74383;SDS011;62824;52.994;-3.936;2023-07-20T06:47:02;7.22;;;3.78;;
74383;SDS011;62824;52.994;-3.936;2023-07-20T06:49:28;5.60;;;3.80;;
74383;SDS011;62824;52.994;-3.936;2023-07-20T06:51:54;5.20;;;3.38;;
74383;SDS011;62824;52.994;-3.936;2023-07-20T06:54:22;6.63;;;4.38;;
74383;SDS011;62824;52.994;-3.936;2023-07-20T06:56:48;6.20;;;3.50;;
74383;SDS011;62824;52.994;-3.936;2023-07-20T06:59:14;7.32;;;4.00;;
74383;SDS011;62824;52.994;-3.936;2023-07-20T07:01:39;5.43;;;3.42;;
74383;SDS011;62824;52.994;-3.936;2023-07-20T07:04:05;5.57;;;3.83;;
74383;SDS011;62824;52.994;-3.936;2023-07-20T07:06:31;5.45;;;3.60;;
74383;SDS011;62824;52.994;-3.936;2023-07-20T07:08:58;6.70;;;3.60;;
74383;SDS011;62824;52.994;-3.936;2023-07-20T07:11:24;8.75;;;4.10;;
74383;SDS011;62824;52.994;-3.936;2023-07-20T07:13:49;5.22;;;3.60;;
74383;SDS011;62824;52.994;-3.936;2023-07-20T07:16:16;4.22;;;3.38;;
74383;SDS011;62824;52.994;-3.936;2023-07-20T07:18:47;6.05;;;3.03;;
74383;SDS011;62824;52.994;-3.936;2023-07-20T07:21:15;4.97;;;3.00;;
74383;SDS011;62824;52.994;-3.936;2023-07-20T07:23:41;6.75;;;3.38;;
74383;SDS011;62824;52.994;-3.936;2023-07-20T07:26:07;7.97;;;3.78;;
74383;SDS011;62824;52.994;-3.936;2023-07-20T07:28:33;3.95;;;3.15;;
74383;SDS011;62824;52.994;-3.936;2023-07-20T07:30:58;4.95;;;3.33;;
74383;SDS011;62824;52.994;-3.936;2023-07-20T07:33:24;4.65;;;3.47;;
74383;SDS011;62824;52.994;-3.936;2023-07-20T07:35:50;4.20;;;3.10;;
74383;SDS011;62824;52.994;-3.936;2023-07-20T07:38:17;5.20;;;2.85;;
74383;SDS011;62824;52.994;-3.936;2023-07-20T07:40:46;5.10;;;2.88;;
74383;SDS011;62824;52.994;-3.936;2023-07-20T07:43:12;4.35;;;3.20;;
74383;SDS011;62824;52.994;-3.936;2023-07-20T07:45:40;6.22;;;3.50;;
74383;SDS011;62824;52.994;-3.936;2023-07-20T07:48:06;6.05;;;3.30;;
74383;SDS011;62824;52.994;-3.936;2023-07-20T07:50:33;9.02;;;3.83;;
74383;SDS011;62824;52.994;-3.936;2023-07-20T07:52:59;5.20;;;3.78;;
74383;SDS011;62824;52.994;-3.936;2023-07-20T07:55:25;5.20;;;3.30;;
74383;SDS011;62824;52.994;-3.936;2023-07-20T07:57:51;6.45;;;3.22;;
74383;SDS011;62824;52.994;-3.936;2023-07-20T08:00:17;6.03;;;3.60;;
74383;SDS011;62824;52.994;-3.936;2023-07-20T08:02:44;6.07;;;3.80;;
74383;SDS011;62824;52.994;-3.936;2023-07-20T08:05:11;6.80;;;3.65;;
74383;SDS011;62824;52.994;-3.936;2023-07-20T08:07:37;6.88;;;3.80;;
74383;SDS011;62824;52.994;-3.936;2023-07-20T08:10:03;6.78;;;3.70;;
74383;SDS011;62824;52.994;-3.936;2023-07-20T08:12:30;6.90;;;4.43;;
74383;SDS011;62824;52.994;-3.936;2023-07-20T08:14:56;7.32;;;4.30;;
74383;SDS011;62824;52.994;-3.936;2023-07-20T08:17:22;7.47;;;3.67;;
74383;SDS011;62824;52.994;-3.936;2023-07-20T08:19:47;7.22;;;4.38;;
74383;SDS011;62824;52.994;-3.936;2023-07-20T08:22:13;5.38;;;3.50;;
74383;SDS011;62824;52.994;-3.936;2023-07-20T08:24:39;6.47;;;3.45;;
74383;SDS011;62824;52.994;-3.936;2023-07-20T08:27:06;5.75;;;3.58;;
74383;SDS011;62824;52.994;-3.936;2023-07-20T08:29:33;6.88;;;4.10;;
74383;SDS011;62824;52.994;-3.936;2023-07-20T08:31:59;6.43;;;3.55;;
74383;SDS011;62824;52.994;-3.936;2023-07-20T08:34:25;5.53;;;3.80;;
74383;SDS011;62824;52.994;-3.936;2023-07-20T08:36:57;6.85;;;4.30;;
74383;SDS011;62824;52.994;-3.936;2023-07-20T08:39:24;7.32;;;3.55;;
74383;SDS011;62824;52.994;-3.936;2023-07-20T08:41:50;8.35;;;4.13;;
74383;SDS011;62824;52.994;-3.936;2023-07-20T08:44:17;6.40;;;3.90;;
74383;SDS011;62824;52.994;-3.936;2023-07-20T08:46:42;7.10;;;4.03;;
74383;SDS011;62824;52.994;-3.936;2023-07-20T08:49:11;7.30;;;4.35;;
74383;SDS011;62824;52.994;-3.936;2023-07-20T08:51:37;6.03;;;4.05;;
74383;SDS011;62824;52.994;-3.936;2023-07-20T08:54:04;9.98;;;4.47;;
74383;SDS011;62824;52.994;-3.936;2023-07-20T08:56:31;6.07;;;3.80;;
74383;SDS011;62824;52.994;-3.936;2023-07-20T08:58:59;5.90;;;3.90;;
74383;SDS011;62824;52.994;-3.936;2023-07-20T09:01:26;7.20;;;4.45;;
74383;SDS011;62824;52.994;-3.936;2023-07-20T09:03:53;10.52;;;4.63;;
74383;SDS011;62824;52.994;-3.936;2023-07-20T09:06:19;6.55;;;4.43;;
74383;SDS011;62824;52.994;-3.936;2023-07-20T09:08:44;7.70;;;4.72;;
74383;SDS011;62824;52.994;-3.936;2023-07-20T09:11:10;5.60;;;4.00;;
74383;SDS011;62824;52.994;-3.936;2023-07-20T09:13:37;7.10;;;4.43;;
74383;SDS011;62824;52.994;-3.936;2023-07-20T09:16:03;5.57;;;3.88;;
74383;SDS011;62824;52.994;-3.936;2023-07-20T09:18:30;8.27;;;3.97;;
74383;SDS011;62824;52.994;-3.936;2023-07-20T09:21:04;6.43;;;3.97;;
74383;SDS011;62824;52.994;-3.936;2023-07-20T09:23:34;6.53;;;4.03;;
74383;SDS011;62824;52.994;-3.936;2023-07-20T09:26:13;8.88;;;4.57;;
74383;SDS011;62824;52.994;-3.936;2023-07-20T09:28:44;6.10;;;4.18;;
74383;SDS011;62824;52.994;-3.936;2023-07-20T09:31:21;6.82;;;4.70;;
74383;SDS011;62824;52.994;-3.936;2023-07-20T09:33:48;6.80;;;4.50;;
74383;SDS011;62824;52.994;-3.936;2023-07-20T09:36:15;7.20;;;4.40;;
74383;SDS011;62824;52.994;-3.936;2023-07-20T09:38:41;6.90;;;4.93;;
74383;SDS011;62824;52.994;-3.936;2023-07-20T09:41:07;7.45;;;4.70;;
74383;SDS011;62824;52.994;-3.936;2023-07-20T09:43:37;7.43;;;5.03;;
74383;SDS011;62824;52.994;-3.936;2023-07-20T09:46:04;7.32;;;4.80;;
74383;SDS011;62824;52.994;-3.936;2023-07-20T09:48:30;9.50;;;5.20;;
74383;SDS011;62824;52.994;-3.936;2023-07-20T09:50:56;8.65;;;5.43;;
74383;SDS011;62824;52.994;-3.936;2023-07-20T09:53:22;8.45;;;4.80;;
74383;SDS011;62824;52.994;-3.936;2023-07-20T09:55:53;8.55;;;5.13;;
74383;SDS011;62824;52.994;-3.936;2023-07-20T09:58:20;9.15;;;5.35;;
74383;SDS011;62824;52.994;-3.936;2023-07-20T10:00:47;9.15;;;5.15;;
74383;SDS011;62824;52.994;-3.936;2023-07-20T10:03:19;11.40;;;5.00;;
74383;SDS011;62824;52.994;-3.936;2023-07-20T10:05:57;10.63;;;5.15;;
74383;SDS011;62824;52.994;-3.936;2023-07-20T10:08:29;7.97;;;5.53;;
74383;SDS011;62824;52.994;-3.936;2023-07-20T10:11:01;9.32;;;4.85;;
74383;SDS011;62824;52.994;-3.936;2023-07-20T10:13:29;8.75;;;5.07;;
74383;SDS011;62824;52.994;-3.936;2023-07-20T10:16:03;7.68;;;4.78;;
74383;SDS011;62824;52.994;-3.936;2023-07-20T10:18:41;7.40;;;4.90;;
74383;SDS011;62824;52.994;-3.936;2023-07-20T10:21:29;8.23;;;4.82;;
74383;SDS011;62824;52.994;-3.936;2023-07-20T10:23:58;6.22;;;4.35;;
74383;SDS011;62824;52.994;-3.936;2023-07-20T10:26:26;7.78;;;4.88;;
74383;SDS011;62824;52.994;-3.936;2023-07-20T10:28:54;7.80;;;5.32;;
74383;SDS011;62824;52.994;-3.936;2023-07-20T10:31:20;8.95;;;6.57;;
74383;SDS011;62824;52.994;-3.936;2023-07-20T10:33:48;7.38;;;4.88;;
74383;SDS011;62824;52.994;-3.936;2023-07-20T10:36:15;10.68;;;5.40;;
74383;SDS011;62824;52.994;-3.936;2023-07-20T10:38:52;7.68;;;5.00;;
74383;SDS011;62824;52.994;-3.936;2023-07-20T10:41:32;6.18;;;4.78;;
74383;SDS011;62824;52.994;-3.936;2023-07-20T10:44:07;8.30;;;5.10;;
74383;SDS011;62824;52.994;-3.936;2023-07-20T10:49:11;6.43;;;5.07;;
74383;SDS011;62824;52.994;-3.936;2023-07-20T10:51:43;7.97;;;4.90;;
74383;SDS011;62824;52.994;-3.936;2023-07-20T10:56:41;6.63;;;4.60;;
74383;SDS011;62824;52.994;-3.936;2023-07-20T11:02:07;7.38;;;4.20;;
74383;SDS011;62824;52.994;-3.936;2023-07-20T11:07:03;6.05;;;4.00;;
74383;SDS011;62824;52.994;-3.936;2023-07-20T11:09:33;6.05;;;3.97;;
74383;SDS011;62824;52.994;-3.936;2023-07-20T11:12:32;6.65;;;4.70;;
74383;SDS011;62824;52.994;-3.936;2023-07-20T11:14:55;6.75;;;4.38;;
74383;SDS011;62824;52.994;-3.936;2023-07-20T11:17:28;5.82;;;3.65;;
74383;SDS011;62824;52.994;-3.936;2023-07-20T11:19:56;5.78;;;3.55;;
74383;SDS011;62824;52.994;-3.936;2023-07-20T11:22:23;5.75;;;3.83;;
74383;SDS011;62824;52.994;-3.936;2023-07-20T11:24:49;6.50;;;4.43;;
74383;SDS011;62824;52.994;-3.936;2023-07-20T11:27:15;7.15;;;4.65;;
74383;SDS011;62824;52.994;-3.936;2023-07-20T11:29:43;6.10;;;4.38;;
74383;SDS011;62824;52.994;-3.936;2023-07-20T11:32:11;6.38;;;4.30;;
74383;SDS011;62824;52.994;-3.936;2023-07-20T11:34:36;6.07;;;3.95;;
74383;SDS011;62824;52.994;-3.936;2023-07-20T11:37:02;7.68;;;4.22;;
74383;SDS011;62824;52.994;-3.936;2023-07-20T11:39:29;5.90;;;4.05;;
74383;SDS011;62824;52.994;-3.936;2023-07-20T11:41:55;4.95;;;3.75;;
74383;SDS011;62824;52.994;-3.936;2023-07-20T11:44:22;5.00;;;3.97;;
74383;SDS011;62824;52.994;-3.936;2023-07-20T11:47:28;6.07;;;3.70;;
74383;SDS011;62824;52.994;-3.936;2023-07-20T11:49:44;5.57;;;3.53;;
74383;SDS011;62824;52.994;-3.936;2023-07-20T11:52:15;6.45;;;3.83;;
74383;SDS011;62824;52.994;-3.936;2023-07-20T11:54:42;7.53;;;4.25;;
74383;SDS011;62824;52.994;-3.936;2023-07-20T11:57:18;5.35;;;3.60;;
74383;SDS011;62824;52.994;-3.936;2023-07-20T11:59:54;5.55;;;4.30;;
74383;SDS011;62824;52.994;-3.936;2023-07-20T12:02:29;5.80;;;4.05;;
74383;SDS011;62824;52.994;-3.936;2023-07-20T12:04:55;5.80;;;4.38;;
74383;SDS011;62824;52.994;-3.936;2023-07-20T12:07:21;7.07;;;4.40;;
74383;SDS011;62824;52.994;-3.936;2023-07-20T12:10:06;6.93;;;3.95;;
74383;SDS011;62824;52.994;-3.936;2023-07-20T12:12:34;6.50;;;4.40;;
74383;SDS011;62824;52.994;-3.936;2023-07-20T12:15:13;6.70;;;4.43;;
74383;SDS011;62824;52.994;-3.936;2023-07-20T12:17:45;5.55;;;4.43;;
74383;SDS011;62824;52.994;-3.936;2023-07-20T12:20:11;7.63;;;4.43;;
74383;SDS011;62824;52.994;-3.936;2023-07-20T12:22:42;6.40;;;3.95;;
74383;SDS011;62824;52.994;-3.936;2023-07-20T12:25:09;6.13;;;4.13;;
74383;SDS011;62824;52.994;-3.936;2023-07-20T12:27:36;6.10;;;4.40;;
74383;SDS011;62824;52.994;-3.936;2023-07-20T12:30:04;6.50;;;4.18;;
74383;SDS011;62824;52.994;-3.936;2023-07-20T12:32:33;8.55;;;4.40;;
74383;SDS011;62824;52.994;-3.936;2023-07-20T12:34:59;6.03;;;4.45;;
74383;SDS011;62824;52.994;-3.936;2023-07-20T12:37:25;7.88;;;4.80;;
74383;SDS011;62824;52.994;-3.936;2023-07-20T12:39:52;5.07;;;4.07;;
74383;SDS011;62824;52.994;-3.936;2023-07-20T12:42:18;5.57;;;4.20;;
74383;SDS011;62824;52.994;-3.936;2023-07-20T12:44:44;5.85;;;4.45;;
74383;SDS011;62824;52.994;-3.936;2023-07-20T12:47:09;7.03;;;4.75;;
74383;SDS011;62824;52.994;-3.936;2023-07-20T12:49:35;7.95;;;4.32;;
74383;SDS011;62824;52.994;-3.936;2023-07-20T12:52:01;8.23;;;4.57;;
74383;SDS011;62824;52.994;-3.936;2023-07-20T12:54:27;6.88;;;4.45;;
74383;SDS011;62824;52.994;-3.936;2023-07-20T12:56:53;6.70;;;4.30;;
74383;SDS011;62824;52.994;-3.936;2023-07-20T12:59:19;5.40;;;4.22;;
74383;SDS011;62824;52.994;-3.936;2023-07-20T13:01:45;8.15;;;4.47;;
74383;SDS011;62824;52.994;-3.936;2023-07-20T13:04:11;5.10;;;4.30;;
74383;SDS011;62824;52.994;-3.936;2023-07-20T13:06:36;5.93;;;4.53;;
74383;SDS011;62824;52.994;-3.936;2023-07-20T13:09:02;6.30;;;4.15;;
74383;SDS011;62824;52.994;-3.936;2023-07-20T13:11:33;5.32;;;3.88;;
74383;SDS011;62824;52.994;-3.936;2023-07-20T13:13:59;6.00;;;4.50;;
74383;SDS011;62824;52.994;-3.936;2023-07-20T13:16:25;6.70;;;4.38;;
74383;SDS011;62824;52.994;-3.936;2023-07-20T13:18:51;6.25;;;4.75;;
74383;SDS011;62824;52.994;-3.936;2023-07-20T13:21:18;7.78;;;4.53;;
74383;SDS011;62824;52.994;-3.936;2023-07-20T13:23:47;5.30;;;4.65;;
74383;SDS011;62824;52.994;-3.936;2023-07-20T13:26:16;6.43;;;4.25;;
74383;SDS011;62824;52.994;-3.936;2023-07-20T13:28:41;5.18;;;4.38;;
74383;SDS011;62824;52.994;-3.936;2023-07-20T13:31:07;5.40;;;4.20;;
74383;SDS011;62824;52.994;-3.936;2023-07-20T13:33:35;6.13;;;4.45;;
74383;SDS011;62824;52.994;-3.936;2023-07-20T13:36:01;5.97;;;4.68;;
74383;SDS011;62824;52.994;-3.936;2023-07-20T13:38:27;6.68;;;4.68;;
74383;SDS011;62824;52.994;-3.936;2023-07-20T13:40:53;6.32;;;4.78;;
74383;SDS011;62824;52.994;-3.936;2023-07-20T13:43:22;6.97;;;4.70;;
74383;SDS011;62824;52.994;-3.936;2023-07-20T13:45:48;7.50;;;4.85;;
74383;SDS011;62824;52.994;-3.936;2023-07-20T13:48:14;6.20;;;4.72;;
74383;SDS011;62824;52.994;-3.936;2023-07-20T13:50:40;7.68;;;4.32;;
74383;SDS011;62824;52.994;-3.936;2023-07-20T13:53:05;6.25;;;5.20;;
74383;SDS011;62824;52.994;-3.936;2023-07-20T13:55:31;7.72;;;4.97;;
74383;SDS011;62824;52.994;-3.936;2023-07-20T13:57:58;8.30;;;4.53;;
74383;SDS011;62824;52.994;-3.936;2023-07-20T14:00:25;7.38;;;4.80;;
74383;SDS011;62824;52.994;-3.936;2023-07-20T14:02:55;4.85;;;4.03;;
74383;SDS011;62824;52.994;-3.936;2023-07-20T14:05:23;5.47;;;3.63;;
74383;SDS011;62824;52.994;-3.936;2023-07-20T14:07:50;7.93;;;4.90;;
74383;SDS011;62824;52.994;-3.936;2023-07-20T14:10:16;8.02;;;4.93;;
74383;SDS011;62824;52.994;-3.936;2023-07-20T14:12:43;8.68;;;5.97;;
74383;SDS011;62824;52.994;-3.936;2023-07-20T14:15:10;8.30;;;5.63;;
74383;SDS011;62824;52.994;-3.936;2023-07-20T14:17:36;6.90;;;5.45;;
74383;SDS011;62824;52.994;-3.936;2023-07-20T14:20:02;5.78;;;4.75;;
74383;SDS011;62824;52.994;-3.936;2023-07-20T14:22:33;5.18;;;4.43;;
74383;SDS011;62824;52.994;-3.936;2023-07-20T14:24:59;7.32;;;5.05;;
74383;SDS011;62824;52.994;-3.936;2023-07-20T14:27:25;6.70;;;4.80;;
74383;SDS011;62824;52.994;-3.936;2023-07-20T14:29:51;6.72;;;5.25;;
74383;SDS011;62824;52.994;-3.936;2023-07-20T14:32:20;6.68;;;4.38;;
74383;SDS011;62824;52.994;-3.936;2023-07-20T14:34:46;6.43;;;3.95;;
74383;SDS011;62824;52.994;-3.936;2023-07-20T14:37:12;5.45;;;3.90;;
74383;SDS011;62824;52.994;-3.936;2023-07-20T14:39:38;5.80;;;4.50;;
74383;SDS011;62824;52.994;-3.936;2023-07-20T14:42:04;6.90;;;5.45;;
74383;SDS011;62824;52.994;-3.936;2023-07-20T14:44:34;6.97;;;5.40;;
74383;SDS011;62824;52.994;-3.936;2023-07-20T14:47:05;8.48;;;5.55;;
74383;SDS011;62824;52.994;-3.936;2023-07-20T14:49:31;6.53;;;4.97;;
74383;SDS011;62824;52.994;-3.936;2023-07-20T14:51:57;8.80;;;5.97;;
74383;SDS011;62824;52.994;-3.936;2023-07-20T14:54:23;7.97;;;5.13;;
74383;SDS011;62824;52.994;-3.936;2023-07-20T14:56:49;11.95;;;5.85;;
74383;SDS011;62824;52.994;-3.936;2023-07-20T14:59:17;7.32;;;5.05;;
74383;SDS011;62824;52.994;-3.936;2023-07-20T15:01:43;5.65;;;4.50;;
74383;SDS011;62824;52.994;-3.936;2023-07-20T15:04:13;7.05;;;4.75;;
74383;SDS011;62824;52.994;-3.936;2023-07-20T15:06:40;6.32;;;4.97;;
74383;SDS011;62824;52.994;-3.936;2023-07-20T15:09:12;10.30;;;5.28;;
74383;SDS011;62824;52.994;-3.936;2023-07-20T15:11:41;7.78;;;5.00;;